Letzte Messung
Messpunkt Temperatur Luftfeuchte
2019-09-17 06:23:41 11.8 ℃ 92.4 %

Messpunkt Temperatur Luftfeuchte
2019-09-17 06:23:41 11.8 ℃ 92.4 %
2019-09-16 17:27:53 15.2 ℃ 61.1 %
2019-09-16 12:59:38 16.5 ℃ 60.7 %
2019-09-16 10:30:31 12.3 ℃ 81.7 %
2019-09-16 08:31:14 11 ℃ 87.7 %
2019-09-16 06:31:55 11.4 ℃ 86 %
2019-09-16 04:32:37 11.4 ℃ 87.2 %
2019-09-15 18:06:01 16.4 ℃ 76.4 %
2019-09-15 02:41:13 12.5 ℃ 88.4 %
2019-09-14 13:13:58 18.6 ℃ 65.4 %
2019-09-12 21:28:29 17 ℃ 83.4 %
2019-09-12 18:29:21 18.9 ℃ 77.1 %
2019-09-07 16:42:09 16.5 ℃ 70.5 %
2019-09-07 14:42:57 19.3 ℃ 59.6 %
2019-09-07 12:43:49 16.9 ℃ 79.7 %
2019-09-07 10:44:30 15.5 ℃ 86.5 %
2019-09-07 01:17:45 15 ℃ 72.4 %
2019-09-06 23:18:33 14.9 ℃ 81.2 %
2019-09-06 18:20:24 17.3 ℃ 65.3 %
2019-09-06 16:21:12 17.7 ℃ 67 %
2019-09-06 14:22:01 16.9 ℃ 75.8 %
2019-09-06 10:23:27 12.3 ℃ 92.3 %
2019-09-06 08:24:12 11.7 ℃ 94.3 %
2019-09-06 06:24:59 10.2 ℃ 94.6 %
2019-09-06 04:25:46 10.5 ℃ 91.7 %
2019-09-06 02:26:37 11.5 ℃ 85 %
2019-09-06 00:27:27 11.8 ℃ 84.1 %
2019-09-05 22:28:14 13.5 ℃ 72.6 %
2019-09-05 20:29:06 15.5 ℃ 73.1 %
2019-09-05 18:29:57 16.3 ℃ 74.1 %
2019-09-05 16:30:45 16.1 ℃ 76.5 %
2019-09-05 14:31:33 15.7 ℃ 90.3 %
2019-09-05 12:32:21 16.3 ℃ 84.1 %
2019-09-05 10:33:08 14.3 ℃ 91.2 %
2019-09-05 08:33:53 13 ℃ 93.3 %
2019-09-05 06:34:38 13.5 ℃ 94.7 %
2019-09-05 04:35:25 13.9 ℃ 95.7 %
2019-09-05 02:36:16 15.3 ℃ 92.9 %
2019-09-05 00:37:02 16.4 ℃ 93.5 %
2019-09-04 22:07:59 17.3 ℃ 94.8 %
2019-09-04 20:08:47 16.9 ℃ 94.2 %
2019-09-03 12:12:12 14.9 ℃ 94.2 %
2019-09-03 10:13:00 13.8 ℃ 93.5 %
2019-09-03 08:13:44 14.4 ℃ 89 %
2019-09-03 06:14:36 14.4 ℃ 90.4 %
2019-09-03 04:15:27 15 ℃ 86.7 %
2019-09-03 02:16:15 14.8 ℃ 86.2 %
2019-09-02 21:48:00 16.3 ℃ 73.8 %
2019-09-02 19:18:58 18.6 ℃ 56.7 %
2019-09-02 17:19:46 17.1 ℃ 64.2 %
2019-09-02 15:20:31 16.4 ℃ 82 %
2019-09-02 13:21:18 17.3 ℃ 70.8 %
2019-09-02 11:22:06 16.6 ℃ 75.4 %
2019-09-02 09:22:51 15.1 ℃ 84.8 %
2019-09-02 07:23:32 13.7 ℃ 89.4 %
2019-09-02 05:24:17 13.9 ℃ 87.4 %
2019-09-02 03:25:02 14.3 ℃ 86.4 %
2019-09-02 01:25:52 15.5 ℃ 79.4 %
2019-09-01 23:26:42 17 ℃ 72.3 %
2019-09-01 21:27:27 18.5 ℃ 62.1 %
2019-09-01 19:28:16 20.6 ℃ 54.6 %
2019-09-01 17:29:10 20.4 ℃ 52.5 %
2019-09-01 15:29:57 18.4 ℃ 84.8 %
2019-09-01 13:30:40 20.4 ℃ 80 %
2019-09-01 11:31:28 20.6 ℃ 83.1 %
2019-09-01 09:02:24 18.9 ℃ 89.6 %
2019-09-01 07:03:04 19.3 ℃ 88.2 %
2019-09-01 04:34:01 20.1 ℃ 85 %
2019-09-01 02:34:48 23.5 ℃ 72.9 %
2019-09-01 00:35:43 24.2 ℃ 68.2 %
2019-08-31 22:36:32 24.6 ℃ 66.9 %
2019-08-31 20:07:27 28.6 ℃ 48.9 %
2019-08-31 18:08:13 28.5 ℃ 46.2 %
2019-08-31 16:09:00 28.6 ℃ 45.7 %
2019-08-31 13:39:53 26.1 ℃ 54 %
2019-08-31 11:39:35 22.3 ℃ 72.5 %
2019-08-31 09:40:16 19.2 ℃ 84.3 %
2019-08-30 22:06:35 20.8 ℃ 58.4 %
2019-08-30 20:07:25 23.8 ℃ 53.4 %
2019-08-30 18:08:18 24.9 ℃ 51.7 %
2019-08-30 16:09:08 24.6 ℃ 57.7 %
2019-08-30 14:09:56 23.4 ℃ 64.6 %
2019-08-30 12:10:40 21.6 ℃ 79.4 %
2019-08-30 10:11:22 21.3 ℃ 81 %
2019-08-30 07:12:25 17.3 ℃ 92.8 %
2019-08-30 05:13:16 17.6 ℃ 92.5 %
2019-08-30 03:14:06 18.2 ℃ 92 %
2019-08-30 01:14:54 19.2 ℃ 90.8 %
2019-08-29 23:15:44 20.9 ℃ 79.9 %
2019-08-29 21:16:33 21.4 ℃ 77.5 %
2019-08-29 18:47:37 23.5 ℃ 58.9 %
2019-08-29 16:48:27 23.9 ℃ 60.1 %
2019-08-29 14:49:17 22.7 ℃ 84.3 %
2019-08-29 12:50:00 22.7 ℃ 84.8 %
2019-08-29 10:50:43 22.1 ℃ 89.4 %
2019-08-29 08:21:34 21.3 ℃ 85.4 %
2019-08-29 06:21:48 20.7 ℃ 85.3 %
2019-08-29 04:22:37 21.6 ℃ 81.9 %
2019-08-29 02:23:27 21.9 ℃ 80.4 %
2019-08-29 00:24:13 25 ℃ 61.2 %
2019-08-28 22:25:08 27.9 ℃ 59.4 %
2019-08-28 20:25:58 29.7 ℃ 50.8 %
2019-08-28 18:26:48 30.6 ℃ 50.3 %
2019-08-28 16:27:34 30.4 ℃ 53.2 %
2019-08-28 14:28:23 29.2 ℃ 57.2 %
2019-08-28 12:29:09 28.8 ℃ 59 %
2019-08-28 10:00:00 23.2 ℃ 80.1 %
2019-08-28 08:00:43 20.8 ℃ 90.8 %
2019-08-28 06:01:25 20.8 ℃ 90.7 %
2019-08-28 04:02:13 21.1 ℃ 87.3 %
2019-08-28 02:03:03 22.6 ℃ 78.4 %
2019-08-28 00:03:54 23 ℃ 79.8 %
2019-08-27 22:04:42 24.2 ℃ 77.7 %
2019-08-27 20:05:30 28.7 ℃ 59.5 %
2019-08-27 17:54:03 29.2 ℃ 58.7 %
2019-08-27 05:13:35 19.4 ℃ 97.2 %
2019-08-27 03:14:18 20.4 ℃ 85.2 %
2019-08-27 01:15:09 21.7 ℃ 81.9 %
2019-08-26 23:16:00 23.4 ℃ 66.9 %
2019-08-26 21:16:50 26.5 ℃ 48.7 %
2019-08-26 19:17:43 29.1 ℃ 40.4 %
2019-08-26 17:18:35 29.7 ℃ 35.3 %
2019-08-26 15:19:23 29.2 ℃ 42.2 %
2019-08-26 13:20:09 26.8 ℃ 55.6 %
2019-08-26 11:20:52 23 ℃ 65.6 %
2019-08-26 09:21:36 22 ℃ 65.7 %
2019-08-26 07:22:21 20.8 ℃ 69.2 %
2019-08-26 05:23:08 20.8 ℃ 69.1 %
2019-08-26 03:23:53 21.6 ℃ 65.2 %
2019-08-26 01:24:43 22.1 ℃ 69.9 %
2019-08-25 23:25:31 23.2 ℃ 67.3 %
2019-08-25 21:26:19 25.1 ℃ 59.6 %
2019-08-25 19:27:09 26.9 ℃ 53.2 %
2019-08-25 17:27:58 26.8 ℃ 51.5 %
2019-08-25 15:28:44 27.5 ℃ 47.6 %
2019-08-25 13:29:33 25.8 ℃ 56.1 %
2019-08-25 11:30:18 22.5 ℃ 66.3 %
2019-08-25 09:31:00 19.1 ℃ 82 %
2019-08-25 07:31:43 19.1 ℃ 82 %
2019-08-25 05:32:20 18.2 ℃ 88.2 %
2019-08-25 03:33:10 19 ℃ 85.5 %
2019-08-25 01:33:58 19.7 ℃ 78.7 %
2019-08-24 23:34:47 20.7 ℃ 76.7 %
2019-08-24 21:35:37 23.2 ℃ 59.1 %
2019-08-24 19:36:29 24.8 ℃ 48.7 %
2019-08-24 17:37:18 25.3 ℃ 52.4 %
2019-08-24 15:38:07 25.1 ℃ 57.4 %
2019-08-24 13:38:54 23.9 ℃ 66.1 %
2019-08-24 11:39:41 20.9 ℃ 84.4 %
2019-08-24 09:40:23 20.9 ℃ 84.9 %
2019-08-24 07:40:53 16.7 ℃ 96.8 %
2019-08-24 05:41:39 17.3 ℃ 94.4 %
2019-08-24 03:42:26 18.2 ℃ 91.2 %
2019-08-24 01:43:15 19.1 ℃ 88.4 %
2019-08-23 23:44:05 25.6 ℃ 56.3 %
2019-08-23 21:38:57 25.4 ℃ 58.5 %
2019-08-23 21:34:53 24.18 ℃ 63.62 %
2019-08-21 15:06:15 18.88 ℃ 79.82 %
2019-08-21 13:06:49 18.28 ℃ 80.3 %
2019-08-21 11:07:25 18.98 ℃ 69.04 %
2019-08-21 09:07:58 17.08 ℃ 83.04 %
2019-08-21 07:08:12 14.52 ℃ 90.78 %
2019-08-21 05:08:35 13.48 ℃ 93.08 %
2019-08-21 03:09:10 14.2 ℃ 92.08 %
2019-08-21 01:09:49 15.1 ℃ 89.3 %
2019-08-20 23:10:28 16.14 ℃ 82.86 %
2019-08-20 21:11:08 17.94 ℃ 69.54 %
2019-08-20 19:11:48 20.26 ℃ 55.4 %
2019-08-20 13:13:32 20.8 ℃ 64.2 %
2019-08-20 11:13:40 19.68 ℃ 73.68 %
2019-08-20 09:14:10 16.64 ℃ 83.48 %
2019-08-20 07:14:46 15.46 ℃ 86.96 %
2019-08-20 05:14:56 13.58 ℃ 92.08 %
2019-08-20 03:15:29 14.12 ℃ 91.48 %
2019-08-20 01:16:02 14.76 ℃ 91.1 %
2019-08-19 23:16:43 15.38 ℃ 91.88 %
2019-08-19 21:16:53 16.32 ℃ 89.24 %
2019-08-19 19:17:30 18.22 ℃ 80.82 %
2019-08-19 17:18:06 17.9 ℃ 82.02 %
2019-08-19 15:18:24 20.74 ℃ 61.08 %
2019-08-19 13:19:00 20.38 ℃ 71.46 %
2019-08-19 11:19:31 18.12 ℃ 85.2 %
2019-08-19 09:20:06 17.26 ℃ 89.32 %
2019-08-19 07:20:40 15.34 ℃ 95.42 %
2019-08-19 03:21:45 14.76 ℃ 95.5 %
2019-08-19 01:22:21 15.38 ℃ 93.7 %
2019-08-18 23:22:56 15.7 ℃ 93.38 %
2019-08-18 21:23:31 16.96 ℃ 89.78 %
2019-08-18 19:24:07 19.36 ℃ 81.76 %
2019-08-18 17:24:43 18.54 ℃ 88.04 %
2019-08-18 15:25:12 17.6 ℃ 91.2 %
2019-08-18 13:25:47 18.34 ℃ 89.78 %
2019-08-15 07:08:03 14.8 ℃ 87.02 %
2019-08-14 16:49:18 20.34 ℃ 46.24 %
2019-08-14 14:49:53 20.22 ℃ 50.9 %
2019-08-14 12:50:24 18.88 ℃ 56.92 %
2019-08-14 10:50:59 17.92 ℃ 65.74 %
2019-08-14 08:51:30 15.5 ℃ 80.36 %
2019-08-14 06:52:00 12.2 ℃ 91.48 %
2019-08-14 04:51:46 12.54 ℃ 90.4 %
2019-08-14 02:52:21 12.5 ℃ 89.62 %
2019-08-14 00:53:12 12.9 ℃ 87.96 %
2019-08-13 22:43:03 14.3 ℃ 78.68 %
2019-08-13 20:42:11 25.58 ℃ 44.5 %
2019-08-13 20:25:51 26.36 ℃ 41.3 %
2019-08-13 20:24:51 26.5 ℃ 41.28 %
2019-08-13 20:23:56 26.56 ℃ 41 %
2019-08-13 20:18:01 26.26 ℃ 42.18 %
2019-08-13 20:14:16 26.32 ℃ 42.4 %
2019-08-13 20:12:53 21.06 ℃ 42.1 %
2019-08-13 20:12:11 21.1 ℃ 42.4 %
2019-08-13 20:09:31 21.1 ℃ 42.2 %
2019-08-13 20:08:15 21.12 ℃ 41.9 %
2019-08-13 20:06:35 26.6 ℃ 41.9 %
2019-08-13 20:02:32 26.7 ℃ 41.8 %
2019-08-13 19:58:30 26.9 ℃ 41.8 %
2019-08-13 19:54:27 27.2 ℃ 41 %
2019-08-13 19:50:25 28.8 ℃ 37.2 %
2019-08-13 19:44:38 29.5 ℃ 36.2 %
2019-08-13 19:43:43 31.8 ℃ 32.6 %
2019-08-13 19:41:40 36.2 ℃ 26.6 %
2019-08-13 19:39:37 40.3 ℃ 16.6 %
2019-08-13 17:50:20 27.24 ℃ 41.79 %
2019-08-13 16:50:37 26.65 ℃ 41.96 %
2019-08-13 15:50:54 26.23 ℃ 42.71 %
2019-08-13 14:51:10 26.32 ℃ 43.81 %
2019-08-13 13:51:24 25.65 ℃ 44.95 %
2019-08-13 12:51:41 25.72 ℃ 44.92 %
2019-08-13 11:51:58 25.85 ℃ 45.27 %
2019-08-13 10:52:16 26.04 ℃ 45.08 %
2019-08-13 09:52:32 25.97 ℃ 45.48 %
2019-08-13 08:52:48 26.06 ℃ 45.78 %
2019-08-13 07:53:03 26.16 ℃ 46.01 %
2019-08-13 06:53:22 26.5 ℃ 45.56 %
2019-08-13 05:53:38 26.55 ℃ 45.51 %
2019-08-13 04:53:52 27.05 ℃ 44.22 %
2019-08-13 03:54:09 27.08 ℃ 44.09 %
2019-08-13 02:54:25 27.1 ℃ 43.92 %
2019-08-13 01:54:39 27.16 ℃ 43.75 %
2019-08-13 00:54:56 27.19 ℃ 43.64 %
2019-08-12 23:55:13 27.26 ℃ 43.59 %
2019-08-12 22:55:31 27.41 ℃ 43.91 %
2019-08-12 21:55:49 27.45 ℃ 42.6 %
2019-08-12 20:56:05 27.35 ℃ 40.73 %
2019-08-12 19:56:11 20.9 ℃ 50.49 %
2019-08-12 18:56:26 22.43 ℃ 47.17 %
2019-08-12 17:56:43 22.79 ℃ 47.57 %
2019-08-12 16:57:00 22.62 ℃ 46.72 %
2019-08-12 15:57:14 21.74 ℃ 55.86 %
2019-08-12 13:57:45 23.62 ℃ 45.81 %
2019-08-12 12:57:59 23.18 ℃ 47.73 %
2019-08-12 11:58:13 23.53 ℃ 50.22 %
2019-08-12 10:58:26 22.16 ℃ 53.43 %
2019-08-12 09:58:40 22.09 ℃ 52.74 %
2019-08-12 08:58:54 20.66 ℃ 56.01 %
2019-08-12 07:59:14 20.89 ℃ 54.92 %
2019-08-12 06:59:26 19.05 ℃ 61.38 %
2019-08-12 05:59:40 17.44 ℃ 66.3 %
2019-08-12 04:59:56 18.18 ℃ 63.54 %
2019-08-12 04:00:13 18.68 ℃ 62.09 %
2019-08-12 03:00:31 18.78 ℃ 61.06 %
2019-08-12 02:00:49 19.34 ℃ 58.76 %
2019-08-12 01:01:01 19.43 ℃ 59.67 %
2019-08-12 00:01:18 19.95 ℃ 58.45 %
2019-08-11 23:01:34 20.4 ℃ 58.86 %
2019-08-11 22:01:46 20.4 ℃ 57.38 %
2019-08-11 21:02:05 21.41 ℃ 49.14 %
2019-08-11 20:02:24 22.39 ℃ 46.63 %
2019-08-11 19:02:42 23.19 ℃ 43.47 %
2019-08-11 18:02:57 23.71 ℃ 42.12 %
2019-08-11 17:03:11 23.71 ℃ 42.36 %
2019-08-11 16:03:27 24.54 ℃ 40.43 %
2019-08-11 14:03:57 23.52 ℃ 41.77 %
2019-08-11 13:04:17 23.36 ℃ 45.01 %
2019-08-11 12:04:34 22.65 ℃ 47.79 %
2019-08-11 11:04:50 22.04 ℃ 51.23 %
2019-08-11 10:05:10 22.16 ℃ 51.28 %
2019-08-11 09:05:26 20.3 ℃ 54.67 %
2019-08-11 08:05:43 19.51 ℃ 55.13 %
2019-08-11 07:05:58 18.36 ℃ 58.52 %
2019-08-11 06:06:15 17.12 ℃ 62.29 %
2019-08-11 05:06:31 17.25 ℃ 61.24 %
2019-08-11 04:06:48 17.5 ℃ 60.54 %
2019-08-11 03:07:05 17.99 ℃ 58.92 %
2019-08-11 02:07:24 18.52 ℃ 57.19 %
2019-08-11 01:07:36 18.54 ℃ 60.75 %
2019-08-11 00:07:54 18.64 ℃ 66.03 %
2019-08-10 23:08:10 19.09 ℃ 67.18 %
2019-08-10 22:08:26 19.82 ℃ 67.7 %
2019-08-10 21:08:39 20.38 ℃ 66.01 %
2019-08-10 20:08:59 20.49 ℃ 62.6 %
2019-08-10 15:16:10 24.55 ℃ 49.24 %
2019-08-10 13:16:41 25.04 ℃ 50.53 %
2019-08-10 12:16:56 23.86 ℃ 57.66 %
2019-08-10 11:17:13 24.67 ℃ 57.38 %
2019-08-10 10:17:31 23.6 ℃ 61.65 %
2019-08-10 09:17:47 23.1 ℃ 64.01 %
2019-08-10 08:18:05 22.63 ℃ 69.04 %
2019-08-10 07:18:16 20.34 ℃ 77.14 %
2019-08-10 06:18:32 19.22 ℃ 80.12 %
2019-08-10 04:19:03 19.82 ℃ 74.89 %
2019-08-10 02:19:34 19.87 ℃ 71.27 %
2019-08-10 01:19:51 19.83 ℃ 70.64 %
2019-08-10 00:20:09 19.83 ℃ 69.69 %
2019-08-09 23:20:23 19.51 ℃ 71.47 %
2019-08-09 22:20:40 19.82 ℃ 71.41 %
2019-08-09 21:20:54 19.6 ℃ 72.48 %
2019-08-09 19:21:28 20.04 ℃ 70.43 %
2019-08-09 18:21:49 22.46 ℃ 55.87 %
2019-08-09 17:22:04 23.2 ℃ 48.98 %
2019-08-09 16:22:19 22.78 ℃ 48.55 %
2019-08-09 15:22:34 22.95 ℃ 50.4 %
2019-08-09 14:22:49 23.02 ℃ 51.33 %
2019-08-09 13:23:10 23.8 ℃ 49.26 %
2019-08-09 12:23:23 23.36 ℃ 52.28 %
2019-08-09 11:23:39 23.34 ℃ 53.06 %
2019-08-09 10:23:52 22.12 ℃ 58.67 %
2019-08-09 09:24:06 22.05 ℃ 59.5 %
2019-08-09 08:24:20 20.41 ℃ 62.7 %
2019-08-09 07:24:33 18.81 ℃ 66.66 %
2019-08-09 05:24:57 15.46 ℃ 79.36 %
2019-08-09 04:25:14 16.07 ℃ 78.32 %
2019-08-09 03:25:31 16.41 ℃ 77.37 %
2019-08-09 02:25:50 16.39 ℃ 76.83 %
2019-08-09 01:26:06 16.63 ℃ 75.78 %
2019-08-09 00:26:23 17.21 ℃ 73.43 %
2019-08-08 23:26:39 17.78 ℃ 70.85 %
2019-08-08 22:26:56 18.14 ℃ 68.88 %
2019-08-08 21:27:13 19.07 ℃ 64.37 %
2019-08-08 20:27:31 19.73 ℃ 59.05 %
2019-08-08 19:27:50 20.98 ℃ 54.07 %
2019-08-08 18:28:06 21.34 ℃ 50.19 %
2019-08-08 17:28:22 21.91 ℃ 51.61 %
2019-08-08 16:28:40 22.49 ℃ 51.1 %
2019-08-08 15:28:56 22.83 ℃ 51.22 %
2019-08-08 14:29:12 22.74 ℃ 54.73 %
2019-08-08 13:29:27 20.86 ℃ 63.66 %
2019-08-08 12:29:44 21.94 ℃ 61.68 %
2019-08-08 11:29:59 19.75 ℃ 72.49 %
2019-08-08 10:30:17 19.26 ℃ 71.49 %
2019-08-08 09:30:31 19.02 ℃ 68.92 %
2019-08-08 08:30:47 19.04 ℃ 67.18 %
2019-08-08 07:31:03 17.6 ℃ 71.41 %
2019-08-08 06:31:20 17.5 ℃ 72.55 %
2019-08-08 05:31:36 16.54 ℃ 75.84 %
2019-08-08 04:31:52 16.86 ℃ 75.45 %
2019-08-08 03:32:10 16.85 ℃ 76.24 %
2019-08-08 02:32:25 16.58 ℃ 77.64 %
2019-08-08 01:32:41 17.2 ℃ 76.44 %
2019-08-08 00:32:57 17.99 ℃ 72.77 %
2019-08-07 23:33:11 17.96 ℃ 72.36 %
2019-08-07 22:33:28 18.68 ℃ 69.03 %
2019-08-07 21:33:40 19.47 ℃ 64.92 %
2019-08-07 20:33:56 20.36 ℃ 59.23 %
2019-08-07 19:34:15 21.89 ℃ 54.21 %
2019-08-07 18:34:33 21.8 ℃ 53.57 %
2019-08-07 17:34:51 21.57 ℃ 54.85 %
2019-08-07 16:35:05 21.45 ℃ 69.07 %
2019-08-07 15:35:16 18.4 ℃ 74.58 %
2019-08-05 21:03:25 21.44 ℃ 72.03 %
2019-08-05 20:03:40 21.75 ℃ 68.32 %
2019-08-05 19:03:54 21.77 ℃ 66.01 %
2019-08-05 18:04:10 21.29 ℃ 68.45 %
2019-08-05 17:04:26 21.15 ℃ 65.77 %
2019-08-05 16:04:43 21.36 ℃ 63.88 %
2019-08-05 14:05:20 25.28 ℃ 46.63 %
2019-08-05 13:05:36 25.64 ℃ 46 %
2019-08-05 12:05:51 24.53 ℃ 48.86 %
2019-08-05 11:06:04 21.94 ℃ 56.11 %
2019-08-05 10:06:19 20.64 ℃ 59.67 %
2019-08-05 09:06:33 19.88 ℃ 62.32 %
2019-08-05 08:06:45 18.71 ℃ 65.88 %
2019-08-05 07:07:02 17.72 ℃ 68.91 %
2019-08-05 06:07:18 16.5 ℃ 72.53 %
2019-08-05 05:07:34 16.23 ℃ 73.64 %
2019-08-05 04:07:50 16.31 ℃ 73.96 %
2019-08-05 03:08:07 16.37 ℃ 74.41 %
2019-08-05 02:08:26 16.74 ℃ 73.59 %
2019-08-05 01:08:45 17.07 ℃ 72.13 %
2019-08-05 00:09:01 17.59 ℃ 70.14 %
2019-08-04 23:09:17 18.05 ℃ 68.81 %
2019-08-04 22:09:37 18.91 ℃ 65.4 %
2019-08-04 21:09:53 20.08 ℃ 60.77 %
2019-08-04 20:10:12 21.5 ℃ 56.56 %
2019-08-04 19:10:31 21.78 ℃ 54.93 %
2019-08-04 18:10:46 21.99 ℃ 54.02 %
2019-08-04 17:11:06 22.82 ℃ 51.03 %
2019-08-04 11:12:29 23.39 ℃ 51.76 %
2019-08-04 10:12:41 21.4 ℃ 57.43 %
2019-08-04 09:12:42 20.83 ℃ 62.34 %
2019-08-04 08:12:53 18.28 ℃ 70.24 %
2019-08-04 07:13:09 16.62 ℃ 72.96 %
2019-08-04 05:13:40 15.23 ℃ 76.63 %
2019-08-04 04:13:59 15.51 ℃ 76.16 %
2019-08-04 03:14:17 16.12 ℃ 74.7 %
2019-08-04 02:14:34 16.29 ℃ 75.17 %
2019-08-04 01:14:51 16.71 ℃ 74.01 %
2019-08-04 00:15:08 17.21 ℃ 74.13 %
2019-08-03 23:15:26 17.74 ℃ 72.87 %
2019-08-03 22:15:46 19.95 ℃ 67.21 %
2019-08-03 21:16:05 20.78 ℃ 67.78 %
2019-08-03 19:16:40 20.92 ℃ 69.73 %
2019-08-03 18:17:01 23.42 ℃ 55.18 %
2019-08-03 17:17:20 24.44 ℃ 51.5 %
2019-08-03 16:17:38 23.88 ℃ 48.02 %
2019-08-03 15:17:51 23.48 ℃ 49.22 %
2019-08-03 14:18:09 24.26 ℃ 47.88 %
2019-08-03 13:18:28 24.52 ℃ 47.47 %
2019-08-03 12:18:45 23.03 ℃ 49.36 %
2019-08-03 11:19:06 24.03 ℃ 45.07 %
2019-08-03 10:19:20 23.11 ℃ 50.29 %
2019-08-03 09:19:36 22.92 ℃ 59.28 %
2019-08-03 08:19:50 19.58 ℃ 69.37 %
2019-08-03 07:20:03 18.89 ℃ 71.23 %
2019-08-03 06:20:16 17.4 ℃ 76.96 %
2019-08-03 05:20:31 16.97 ℃ 77.85 %
2019-08-03 04:20:48 16.83 ℃ 77.87 %
2019-08-03 03:21:07 17.66 ℃ 75.94 %
2019-08-03 02:21:25 17.75 ℃ 74.71 %
2019-08-03 01:21:43 18.4 ℃ 72.66 %
2019-08-03 00:21:59 19.03 ℃ 69.44 %
2019-08-02 23:22:17 19.7 ℃ 69.13 %
2019-08-02 22:22:32 20.07 ℃ 67.45 %
2019-08-02 21:22:46 20.48 ℃ 64.71 %
2019-08-02 20:23:06 21.41 ℃ 59.53 %
2019-08-02 19:23:20 21.19 ℃ 59.48 %
2019-08-02 18:23:37 21.51 ℃ 61.21 %
2019-08-02 17:23:51 21.44 ℃ 62.26 %
2019-08-02 16:24:10 21.87 ℃ 61.28 %
2019-07-26 17:43:26 27.97 ℃ 40.57 %
2019-07-26 16:43:47 29.18 ℃ 34.21 %
2019-07-26 15:44:03 28.97 ℃ 32.11 %
2019-07-26 14:44:19 28.67 ℃ 36.96 %
2019-07-26 13:44:33 27.66 ℃ 41.72 %
2019-07-26 12:44:51 27.57 ℃ 44.76 %
2019-07-26 11:45:08 27.61 ℃ 42.94 %
2019-07-26 10:45:24 26.78 ℃ 46.8 %
2019-07-26 09:45:41 26.16 ℃ 46.67 %
2019-07-26 08:45:55 24.56 ℃ 50.09 %
2019-07-26 07:46:10 22.34 ℃ 57.77 %
2019-07-26 05:46:35 19.6 ℃ 59.62 %
2019-07-26 03:47:04 19.91 ℃ 59.57 %
2019-07-26 02:47:20 20.66 ℃ 56.54 %
2019-07-26 01:47:39 21.3 ℃ 55.39 %
2019-07-26 00:47:57 22.38 ℃ 52.25 %
2019-07-25 23:48:15 23 ℃ 52.93 %
2019-07-25 22:48:29 23.67 ℃ 52.7 %
2019-07-25 21:48:47 24.83 ℃ 51.48 %
2019-07-25 20:49:06 26.16 ℃ 47.64 %
2019-07-25 19:49:26 27.67 ℃ 44.19 %
2019-07-25 18:49:44 29.37 ℃ 43.23 %
2019-07-25 16:50:22 31.78 ℃ 38.82 %
2019-07-25 15:50:40 33.45 ℃ 33.21 %
2019-07-25 14:50:54 33.26 ℃ 32.92 %
2019-07-25 11:51:36 31.62 ℃ 38.38 %
2019-07-25 10:51:53 30.42 ℃ 40.91 %
2019-07-25 09:52:04 28.02 ℃ 46.43 %
2019-07-25 08:52:20 26.72 ℃ 49.3 %
2019-07-25 06:52:45 23.36 ℃ 55.25 %
2019-07-25 05:53:00 22.12 ℃ 58.14 %
2019-07-25 04:53:16 21.87 ℃ 59.87 %
2019-07-25 02:53:48 22.49 ℃ 62.13 %
2019-07-25 01:54:05 22.91 ℃ 62.04 %
2019-07-25 00:54:26 23.19 ℃ 61.76 %
2019-07-24 23:54:43 23.26 ℃ 61.62 %
2019-07-24 22:54:59 23.74 ℃ 58.68 %
2019-07-24 21:55:14 24.79 ℃ 51.63 %
2019-07-24 20:55:34 26.6 ℃ 47.91 %
2019-07-24 19:55:51 28.62 ℃ 43.86 %
2019-07-24 18:56:09 30.16 ℃ 41.17 %
2019-07-24 17:56:26 30.4 ℃ 41.14 %
2019-07-24 16:56:41 30.45 ℃ 39.59 %
2019-07-24 15:56:55 29.65 ℃ 43.61 %
2019-07-24 14:57:11 29.23 ℃ 45.1 %
2019-07-24 12:57:46 30.26 ℃ 39.35 %
2019-07-24 11:57:58 28.57 ℃ 43.24 %
2019-07-24 10:58:16 29.08 ℃ 45.08 %
2019-07-24 09:58:28 27.08 ℃ 50.83 %
2019-07-24 08:58:46 27.06 ℃ 49.71 %
2019-07-24 07:58:55 25.23 ℃ 54.14 %
2019-07-24 06:59:09 23.92 ℃ 57.11 %
2019-07-24 04:59:32 19.73 ℃ 70.21 %
2019-07-24 03:59:49 20.11 ℃ 69 %
2019-07-24 03:00:06 20.76 ℃ 67.11 %
2019-07-24 02:00:23 21.31 ℃ 65.89 %
2019-07-24 01:00:40 21.73 ℃ 64.72 %
2019-07-24 00:00:57 22.46 ℃ 62.81 %
2019-07-23 23:01:16 23.15 ℃ 60.53 %
2019-07-23 22:01:34 24.47 ℃ 57.07 %
2019-07-23 21:01:49 25.68 ℃ 52.23 %
2019-07-23 20:02:05 26.73 ℃ 49.12 %
2019-07-23 19:02:21 27.38 ℃ 47.51 %
2019-07-23 17:02:56 28.54 ℃ 45.21 %
2019-07-23 16:03:14 28.35 ℃ 46.14 %
2019-07-23 15:03:33 28.03 ℃ 45.48 %
2019-07-23 14:03:52 28.07 ℃ 44.92 %
2019-07-23 13:04:05 27.68 ℃ 47.76 %
2019-07-23 08:35:42 21.09 ℃ 68.05 %
2019-07-23 07:35:52 19.53 ℃ 73.39 %
2019-07-23 06:36:06 18.84 ℃ 74.64 %
2019-07-23 05:36:17 17.48 ℃ 77.69 %
2019-07-23 04:36:33 17.39 ℃ 78.23 %
2019-07-23 03:36:49 17.55 ℃ 77.77 %
2019-07-23 02:37:00 17.7 ℃ 77.35 %
2019-07-23 01:37:11 17.98 ℃ 76.87 %
2019-07-23 00:37:28 18.3 ℃ 76.09 %
2019-07-22 23:37:44 18.85 ℃ 74.13 %
2019-07-22 22:38:00 19.38 ℃ 72.34 %
2019-07-22 20:38:27 20.48 ℃ 68.82 %
2019-07-22 19:38:44 21.26 ℃ 64.02 %
2019-07-22 18:38:58 20.35 ℃ 65.24 %
2019-07-22 16:01:14 19.98 ℃ 63.74 %
2019-07-22 15:01:30 19.46 ℃ 65.79 %
2019-07-22 14:01:42 19.77 ℃ 65.05 %
2019-07-22 13:01:56 19.16 ℃ 65.61 %
2019-07-22 12:02:14 20.39 ℃ 58.92 %
2019-07-22 11:02:23 19.5 ℃ 60.89 %
2019-07-22 10:02:41 19.09 ℃ 63.04 %
2019-07-22 09:02:55 19.37 ℃ 62.26 %
2019-07-22 08:03:06 17.73 ℃ 66.84 %
2019-07-22 07:02:58 17.12 ℃ 67.57 %
2019-07-22 06:03:12 15.3 ℃ 72.62 %
2019-07-22 05:03:24 15.26 ℃ 74.66 %
2019-07-22 04:03:41 15.5 ℃ 73.64 %
2019-07-22 03:03:53 15.53 ℃ 73.64 %
2019-07-22 02:04:05 15.65 ℃ 72.99 %
2019-07-22 01:04:14 16.37 ℃ 70.95 %
2019-07-22 00:04:27 16.76 ℃ 69.55 %
2019-07-21 23:04:44 17.33 ℃ 67.71 %
2019-07-21 22:04:57 17.95 ℃ 64.72 %
2019-07-21 21:05:11 18.96 ℃ 59.85 %
2019-07-21 20:05:33 24.06 ℃ 47.51 %
2019-07-21 19:05:48 23.74 ℃ 48.58 %
2019-07-21 15:37:30 21.46 ℃ 53.15 %
2019-07-21 14:37:44 22.06 ℃ 53.31 %
2019-07-21 13:37:57 21.06 ℃ 56.99 %
2019-07-21 12:38:10 21.96 ℃ 55.28 %
2019-07-21 11:38:23 21.83 ℃ 56.59 %
2019-07-21 10:38:37 21.49 ℃ 59.47 %
2019-07-21 09:38:31 21.39 ℃ 59.48 %
2019-07-21 08:38:39 20.01 ℃ 65.54 %
2019-07-21 07:38:54 19.71 ℃ 68.85 %
2019-07-21 06:39:06 19.15 ℃ 71.14 %
2019-07-21 05:39:22 18.65 ℃ 72.71 %
2019-07-21 04:39:35 18.19 ℃ 73.65 %
2019-07-21 03:39:49 17.85 ℃ 74.14 %
2019-07-21 02:40:07 18.22 ℃ 73.44 %
2019-07-21 01:40:19 19.1 ℃ 71.51 %
2019-07-21 00:40:34 18.6 ℃ 74.13 %
2019-07-20 23:40:48 19.08 ℃ 72.77 %
2019-07-20 22:40:59 18.89 ℃ 73.61 %
2019-07-20 21:41:13 19.46 ℃ 73.12 %
2019-07-20 20:41:27 20.88 ℃ 69.44 %
2019-07-20 19:41:37 20.38 ℃ 71.94 %
2019-07-20 18:41:36 20.53 ℃ 69.89 %
2019-07-20 17:41:45 20.59 ℃ 68.14 %
2019-07-20 16:42:17 28.95 ℃ 36.52 %
2019-07-20 15:42:32 28.77 ℃ 36.93 %
2019-07-20 14:42:39 28.38 ℃ 35.98 %
2019-07-20 13:42:51 27.68 ℃ 39.91 %
2019-07-19 22:46:35 19.89 ℃ 49.07 %
2019-07-19 21:46:40 20.39 ℃ 48.51 %
2019-07-19 20:46:51 21.26 ℃ 46.54 %
2019-07-19 19:47:03 21.7 ℃ 43.88 %
2019-07-19 18:47:08 22.21 ℃ 40.44 %
2019-07-19 17:47:24 23.99 ℃ 38.72 %
2019-07-19 16:47:34 23.91 ℃ 46.56 %
2019-07-19 15:47:41 24.42 ℃ 46.67 %
2019-07-19 14:47:45 24.32 ℃ 48.62 %
2019-07-19 13:47:52 23.91 ℃ 50.97 %
2019-07-19 12:48:06 24.24 ℃ 51.55 %
2019-07-19 11:48:05 21.86 ℃ 58.62 %
2019-07-19 10:48:12 21.28 ℃ 59.2 %
2019-07-19 09:48:18 22.33 ℃ 54.43 %
2019-07-19 08:48:06 20.9 ℃ 59.12 %
2019-07-19 07:47:40 19.76 ℃ 62.9 %
2019-07-19 06:47:39 19.4 ℃ 63.15 %
2019-07-19 05:47:35 18.67 ℃ 63.45 %
2019-07-19 04:47:51 18.8 ℃ 63.11 %
2019-07-19 03:17:00 19.19 ℃ 60.28 %
2019-07-19 02:17:13 19.61 ℃ 59.04 %
2019-07-19 01:17:28 19.43 ℃ 58.09 %
2019-07-19 00:17:43 19.76 ℃ 55.93 %
2019-07-18 23:17:57 19.92 ℃ 55.11 %
2019-07-18 21:39:24 21.8 ℃ 50.78 %
2019-07-18 20:39:33 22.79 ℃ 48.98 %
2019-07-18 19:39:41 23.58 ℃ 47.45 %
2019-07-18 18:39:52 23.43 ℃ 48.23 %
2019-07-18 17:40:07 23.49 ℃ 47.6 %
2019-07-18 16:40:18 23.7 ℃ 45.38 %
2019-07-18 15:40:32 25.88 ℃ 38.61 %
2019-07-18 14:40:42 26.17 ℃ 38.39 %
2019-07-18 13:40:58 25.26 ℃ 39.76 %
2019-07-18 12:40:48 24.94 ℃ 41.84 %
2019-07-18 11:41:02 24.14 ℃ 42.96 %
2019-07-18 10:41:12 23.58 ℃ 46.61 %
2019-07-18 09:40:49 22.97 ℃ 48.85 %
2019-07-18 08:40:33 21.95 ℃ 51.92 %
2019-07-18 07:40:40 20.58 ℃ 55.29 %
2019-07-18 06:41:02 20.67 ℃ 52.12 %
Durchschnitt 21.12 ℃ 63.72 %

weatherino

Wetterdaten aus der Harmsstraße 54 in 24114 Kiel (4. OG, außen), die per BME280 DHT22 und einem ESP-32 erhoben werden.

Mehr zu dem Projekt findet man hier.

SSL, keine Cookies, keine IP-Adress-Speicherung, keine Verarbeitung von personenbezogenen Daten

Impressum